Terminal Aerodrome Forecast
Issued by NWS Central Illinois

Home | Current Version | Previous Version | Text Only | Print | Product List | Glossary On
Versions: 1 2 3 4 5 6 7 8 9 10 11 12 13 14 15 16 17 18 19 20 21 22 23 24
000
FTUS43 KILX 261744
TAFPIA
TAF
KPIA 261744Z 2618/2718 17009KT P6SM VCTS SCT025CB BKN050
      TEMPO 2618/2620 4SM -TSRA BR BKN025CB
     FM262200 24005KT P6SM BKN050
     FM270100 33005KT P6SM BKN050
     FM270600 VRB03KT 4SM BR SCT050
      TEMPO 2709/2713 2SM BR BKN008
     FM271500 08008KT P6SM SCT250=

USA.gov is the U.S. government's official web portal to all federal, state and local government web resources and services.